KLEB/LEB METAR and TAF weather

Enter ICAO airport designator
Station Type Date Time Source
KLEB METAR 2021/09/28 04:04 UTC NOAA

KLEB 280404Z AUTO 18004KT 6SM -RA BR FEW001 OVC040 16/14 A2980 RMK AO2 RAB00 P0000 T01610144


Station Type Date Time Source
KLEB Decoded METAR 2021/09/28 04:04 UTC NOAA

LEBANON MUNICIPAL AIRPORT, NH, United States (KLEB) 43-38N 072-18W 171M
Sep 28, 2021 - 12:04 AM EDT / 2021.09.28 0404 UTC
Wind: from the S (180 degrees) at 5 MPH (4 KT):0
Visibility: 6 mile(s):0
Sky conditions: overcast
Weather: light rain; mist
Precipitation last hour: A trace
Temperature: 61.0 F (16.1 C)
Dew Point: 57.9 F (14.4 C)
Relative Humidity: 89%
Pressure (altimeter): 29.8 in. Hg (1009 hPa)
ob: KLEB 280404Z AUTO 18004KT 6SM -RA BR FEW001 OVC040 16/14 A2980 RMK AO2 RAB00 P0000 T01610144
cycle: 4

Station Type Date Time Source
KLEB TAF 2021/09/28 04:39 UTC NOAA

TAF
AMD KLEB 280337Z 2804/2824 VRB03KT 5SM BR VCSH BKN001 OVC040
TEMPO 2804/2806 OVC045
FM280900 00000KT 1/2SM FG OVC001
FM281300 34005KT P6SM BKN025
FM281700 33005KT P6SM BKN040

Example: see airport list